createdAt,value
2018-06-22T00:00:02.326Z,1016.35
2018-06-22T00:01:55.821Z,1016.37
2018-06-22T00:02:55.283Z,1016.29
2018-06-22T00:04:48.257Z,1016.27
2018-06-22T00:05:48.265Z,1016.30
2018-06-22T00:07:41.241Z,1016.29
2018-06-22T00:08:41.202Z,1016.27
2018-06-22T00:10:34.162Z,1016.30
2018-06-22T00:11:34.163Z,1016.26
2018-06-22T00:13:27.148Z,1016.28
2018-06-22T00:14:27.116Z,1016.31
2018-06-22T00:16:21.833Z,1016.26
2018-06-22T00:17:20.699Z,1016.24
2018-06-22T00:19:13.097Z,1016.19
2018-06-22T00:20:13.040Z,1016.19
2018-06-22T00:22:05.991Z,1016.14
2018-06-22T00:23:06.982Z,1016.14
2018-06-22T00:24:58.983Z,1016.07
2018-06-22T00:25:58.941Z,1016.12
2018-06-22T00:27:51.985Z,1016.10
2018-06-22T00:28:51.902Z,1016.11
2018-06-22T00:30:44.873Z,1016.07
2018-06-22T00:31:44.874Z,1016.03
2018-06-22T00:33:37.851Z,1016.08
2018-06-22T00:34:37.815Z,1016.04
2018-06-22T00:36:30.787Z,1016.04
2018-06-22T00:37:30.806Z,1016.04
2018-06-22T00:39:23.760Z,1015.99
2018-06-22T00:40:23.736Z,1016.01
2018-06-22T00:42:16.699Z,1015.98
2018-06-22T00:43:16.685Z,1015.95
2018-06-22T00:45:09.677Z,1015.98
2018-06-22T00:46:09.641Z,1015.98
2018-06-22T00:48:02.654Z,1015.87
2018-06-22T00:49:02.596Z,1015.88
2018-06-22T00:50:55.562Z,1015.85
2018-06-22T00:51:55.567Z,1015.89
2018-06-22T00:53:48.564Z,1015.84
2018-06-22T00:54:48.512Z,1015.85
2018-06-22T00:56:41.480Z,1015.89
2018-06-22T00:57:41.481Z,1015.89
2018-06-22T00:59:34.455Z,1015.84
2018-06-22T01:00:34.433Z,1015.86
2018-06-22T01:02:27.402Z,1015.80
2018-06-22T01:03:27.383Z,1015.82
2018-06-22T01:05:20.389Z,1015.78
2018-06-22T01:06:20.364Z,1015.80
2018-06-22T01:08:13.344Z,1015.79
2018-06-22T01:09:13.305Z,1015.77
2018-06-22T01:11:06.299Z,1015.74
2018-06-22T01:12:06.270Z,1015.73
2018-06-22T01:13:59.219Z,1015.72
2018-06-22T01:14:59.214Z,1015.70
2018-06-22T01:16:52.212Z,1015.70
2018-06-22T01:17:52.175Z,1015.68
2018-06-22T01:19:45.137Z,1015.64
2018-06-22T01:20:45.145Z,1015.72
2018-06-22T01:22:38.131Z,1015.65
2018-06-22T01:23:38.095Z,1015.71
2018-06-22T01:25:31.049Z,1015.71
2018-06-22T01:26:31.043Z,1015.72
2018-06-22T01:28:24.024Z,1015.72
2018-06-22T01:29:24.003Z,1015.67
2018-06-22T01:31:16.978Z,1015.64
2018-06-22T01:32:16.968Z,1015.64
2018-06-22T01:34:09.989Z,1015.61
2018-06-22T01:35:09.912Z,1015.65
2018-06-22T01:37:02.889Z,1015.62
2018-06-22T01:38:02.873Z,1015.59
2018-06-22T01:39:55.863Z,1015.62
2018-06-22T01:40:55.837Z,1015.54
2018-06-22T01:42:48.817Z,1015.53
2018-06-22T01:43:48.790Z,1015.53
2018-06-22T01:45:41.759Z,1015.54
2018-06-22T01:46:41.742Z,1015.52
2018-06-22T01:48:34.773Z,1015.49
2018-06-22T01:49:34.709Z,1015.48
2018-06-22T01:51:27.671Z,1015.46
2018-06-22T01:52:27.661Z,1015.50
2018-06-22T01:54:20.643Z,1015.47
2018-06-22T01:55:20.630Z,1015.48
2018-06-22T01:57:13.575Z,1015.44
2018-06-22T01:58:13.571Z,1015.44
2018-06-22T02:00:06.566Z,1015.48
2018-06-22T02:01:06.538Z,1015.46
2018-06-22T02:03:03.587Z,1015.45
2018-06-22T02:04:03.592Z,1015.42
2018-06-22T02:05:56.704Z,1015.45
2018-06-22T02:06:57.531Z,1015.35
2018-06-22T02:08:49.512Z,1015.42
2018-06-22T02:09:49.513Z,1015.38
2018-06-22T02:11:42.486Z,1015.27
2018-06-22T02:12:42.462Z,1015.35
2018-06-22T02:14:35.416Z,1015.38
2018-06-22T02:15:35.431Z,1015.34
2018-06-22T02:17:28.400Z,1015.40
2018-06-22T02:18:28.374Z,1015.37
2018-06-22T02:20:21.332Z,1015.38
2018-06-22T02:21:21.336Z,1015.39
2018-06-22T02:23:14.313Z,1015.39
2018-06-22T02:24:14.296Z,1015.34
2018-06-22T02:26:07.249Z,1015.32
2018-06-22T02:27:07.241Z,1015.33
2018-06-22T02:29:00.243Z,1015.30
2018-06-22T02:30:00.206Z,1015.28
2018-06-22T02:31:53.167Z,1015.26
2018-06-22T02:32:53.159Z,1015.21
2018-06-22T02:34:46.147Z,1015.22
2018-06-22T02:35:46.119Z,1015.25
2018-06-22T02:37:39.082Z,1015.19
2018-06-22T02:38:39.077Z,1015.17
2018-06-22T02:40:32.066Z,1015.14
2018-06-22T02:41:32.026Z,1015.11
2018-06-22T02:43:24.999Z,1015.19
2018-06-22T02:44:24.997Z,1015.17
2018-06-22T02:46:17.980Z,1015.06
2018-06-22T02:47:17.947Z,1015.18
2018-06-22T02:49:10.911Z,1015.22
2018-06-22T02:50:10.907Z,1015.19
2018-06-22T02:52:03.903Z,1015.24
2018-06-22T02:53:03.879Z,1015.30
2018-06-22T02:54:57.293Z,1015.20
2018-06-22T02:55:57.078Z,1015.23
2018-06-22T02:56:56.819Z,1015.17
2018-06-22T02:58:49.819Z,1015.11
2018-06-22T02:59:49.821Z,1015.15
2018-06-22T03:01:42.735Z,1015.15
2018-06-22T03:02:42.738Z,1015.13
2018-06-22T03:04:35.723Z,1015.18
2018-06-22T03:05:35.750Z,1015.13
2018-06-22T03:07:28.719Z,1015.07
2018-06-22T03:08:28.705Z,1015.04
2018-06-22T03:10:21.660Z,1015.04
2018-06-22T03:11:21.617Z,1015.00
2018-06-22T03:13:14.580Z,1015.00
2018-06-22T03:14:14.570Z,1014.99
2018-06-22T03:16:07.556Z,1015.05
2018-06-22T03:17:07.534Z,1015.05
2018-06-22T03:18:07.528Z,1015.05
2018-06-22T03:19:07.527Z,1015.05
2018-06-22T03:20:07.528Z,1015.07
2018-06-22T03:21:07.530Z,1014.98
2018-06-22T03:22:07.536Z,1015.04
2018-06-22T03:23:07.532Z,1015.04
2018-06-22T03:24:07.534Z,1015.07
2018-06-22T03:25:07.540Z,1015.07
2018-06-22T03:26:07.542Z,1015.02
2018-06-22T03:27:07.543Z,1015.08
2018-06-22T03:28:07.547Z,1015.03
2018-06-22T03:29:07.555Z,1015.02
2018-06-22T03:30:07.555Z,1014.97
2018-06-22T03:31:07.557Z,1014.97
2018-06-22T03:32:07.591Z,1014.99
2018-06-22T03:33:07.552Z,1014.94
2018-06-22T03:34:07.562Z,1014.99
2018-06-22T03:35:07.566Z,1014.95
2018-06-22T03:36:07.558Z,1014.93
2018-06-22T03:37:07.564Z,1014.95
2018-06-22T03:38:07.567Z,1014.99
2018-06-22T03:39:07.569Z,1014.96
2018-06-22T03:40:07.566Z,1014.95
2018-06-22T03:41:07.573Z,1014.91
2018-06-22T03:42:07.580Z,1014.91
2018-06-22T03:43:08.518Z,1015.03
2018-06-22T03:44:07.576Z,1015.00
2018-06-22T03:45:07.584Z,1015.02
2018-06-22T03:46:07.585Z,1015.05
2018-06-22T03:47:07.587Z,1015.01
2018-06-22T03:48:07.590Z,1014.97
2018-06-22T03:49:07.590Z,1014.93
2018-06-22T03:50:07.591Z,1014.95
2018-06-22T03:51:07.597Z,1014.93
2018-06-22T03:52:07.602Z,1014.91
2018-06-22T03:53:07.596Z,1014.85
2018-06-22T03:54:07.603Z,1014.83
2018-06-22T03:55:07.607Z,1014.86
2018-06-22T03:56:07.606Z,1014.84
2018-06-22T03:57:07.602Z,1014.88
2018-06-22T03:58:07.607Z,1014.84
2018-06-22T03:59:07.615Z,1014.83
2018-06-22T04:00:07.607Z,1014.84
2018-06-22T04:01:07.615Z,1014.86
2018-06-22T04:02:07.624Z,1014.83
2018-06-22T04:03:08.522Z,1014.79
2018-06-22T04:04:07.622Z,1014.78
2018-06-22T04:05:07.624Z,1014.69
2018-06-22T04:06:07.625Z,1014.71
2018-06-22T04:07:07.627Z,1014.64
2018-06-22T04:08:07.678Z,1014.67
2018-06-22T04:09:07.630Z,1014.63
2018-06-22T04:10:07.641Z,1014.63
2018-06-22T04:11:07.638Z,1014.70
2018-06-22T04:12:07.638Z,1014.68
2018-06-22T04:13:07.637Z,1014.63
2018-06-22T04:14:08.526Z,1014.68
2018-06-22T04:15:07.643Z,1014.60
2018-06-22T04:16:07.643Z,1014.61
2018-06-22T04:17:07.642Z,1014.63
2018-06-22T04:18:07.646Z,1014.59
2018-06-22T04:19:07.650Z,1014.60
2018-06-22T04:20:07.659Z,1014.58
2018-06-22T04:21:07.653Z,1014.63
2018-06-22T04:22:07.656Z,1014.62
2018-06-22T04:23:07.665Z,1014.59
2018-06-22T04:24:07.662Z,1014.63
2018-06-22T04:25:07.664Z,1014.66
2018-06-22T04:26:07.665Z,1014.71
2018-06-22T04:27:07.667Z,1014.72
2018-06-22T04:28:07.668Z,1014.78
2018-06-22T04:29:07.678Z,1014.68
2018-06-22T04:31:00.649Z,1014.77
2018-06-22T04:32:00.621Z,1014.80
2018-06-22T04:33:53.604Z,1014.79
2018-06-22T04:34:53.576Z,1014.74
2018-06-22T04:36:46.549Z,1014.84
2018-06-22T04:37:46.539Z,1014.95
2018-06-22T04:39:39.519Z,1014.91
2018-06-22T04:40:39.500Z,1014.92
2018-06-22T04:42:32.448Z,1014.96
2018-06-22T04:43:32.455Z,1015.02
2018-06-22T04:45:25.454Z,1014.97
2018-06-22T04:46:25.411Z,1015.02
2018-06-22T04:48:18.371Z,1015.06
2018-06-22T04:49:18.366Z,1015.05
2018-06-22T04:51:11.860Z,1015.05
2018-06-22T04:52:11.327Z,1015.07
2018-06-22T04:54:04.277Z,1015.12
2018-06-22T04:55:04.285Z,1015.08
2018-06-22T04:56:57.269Z,1015.10
2018-06-22T04:57:57.239Z,1015.08
2018-06-22T04:59:50.194Z,1015.01
2018-06-22T05:00:50.200Z,1015.11
2018-06-22T05:02:43.202Z,1015.16
2018-06-22T05:03:43.180Z,1015.12
2018-06-22T05:05:36.121Z,1015.15
2018-06-22T05:06:36.113Z,1015.18
2018-06-22T05:08:29.110Z,1015.15
2018-06-22T05:09:29.064Z,1015.17
2018-06-22T05:11:22.025Z,1015.15
2018-06-22T05:12:22.021Z,1015.24
2018-06-22T05:14:15.019Z,1015.23
2018-06-22T05:15:14.975Z,1015.27
2018-06-22T05:17:07.973Z,1015.21
2018-06-22T05:18:07.948Z,1015.24
2018-06-22T05:20:01.042Z,1015.20
2018-06-22T05:21:00.900Z,1015.23
2018-06-22T05:22:00.895Z,1015.24
2018-06-22T05:23:00.899Z,1015.28
2018-06-22T05:24:00.902Z,1015.27
2018-06-22T05:25:00.903Z,1015.28
2018-06-22T05:26:00.909Z,1015.35
2018-06-22T05:27:00.908Z,1015.35
2018-06-22T05:28:00.911Z,1015.35
2018-06-22T05:29:00.905Z,1015.36
2018-06-22T05:30:00.913Z,1015.43
2018-06-22T05:31:00.915Z,1015.42
2018-06-22T05:32:00.912Z,1015.42
2018-06-22T05:33:00.922Z,1015.41
2018-06-22T05:34:00.914Z,1015.40
2018-06-22T05:35:00.937Z,1015.39
2018-06-22T05:36:00.923Z,1015.46
2018-06-22T05:37:00.919Z,1015.41
2018-06-22T05:38:00.933Z,1015.28
2018-06-22T05:39:53.904Z,1015.44
2018-06-22T05:40:53.878Z,1015.41
2018-06-22T05:42:46.862Z,1015.38
2018-06-22T05:43:46.846Z,1015.38
2018-06-22T05:45:40.609Z,1015.46
2018-06-22T05:46:40.435Z,1015.56
2018-06-22T05:48:33.871Z,1015.57
2018-06-22T05:49:33.368Z,1015.56
2018-06-22T05:51:27.117Z,1015.62
2018-06-22T05:52:26.425Z,1015.53
2018-06-22T05:54:19.400Z,1015.57
2018-06-22T05:55:19.390Z,1015.53
2018-06-22T05:56:19.386Z,1015.50
2018-06-22T05:57:19.383Z,1015.57
2018-06-22T05:58:19.393Z,1015.51
2018-06-22T05:59:19.392Z,1015.52
2018-06-22T06:00:19.391Z,1015.58
2018-06-22T06:01:19.388Z,1015.57
2018-06-22T06:02:19.397Z,1015.53
2018-06-22T06:03:19.400Z,1015.58
2018-06-22T06:04:19.413Z,1015.59
2018-06-22T06:05:19.397Z,1015.63
2018-06-22T06:06:19.404Z,1015.62
2018-06-22T06:07:19.411Z,1015.63
2018-06-22T06:08:19.413Z,1015.61
2018-06-22T06:09:19.419Z,1015.70
2018-06-22T06:10:19.422Z,1015.72
2018-06-22T06:11:19.414Z,1015.69
2018-06-22T06:12:19.427Z,1015.67
2018-06-22T06:13:19.421Z,1015.71
2018-06-22T06:14:19.422Z,1015.74
2018-06-22T06:15:19.427Z,1015.75
2018-06-22T06:16:19.426Z,1015.78
2018-06-22T06:17:19.438Z,1015.85
2018-06-22T06:18:19.437Z,1015.93
2018-06-22T06:19:19.436Z,1015.88
2018-06-22T06:20:19.445Z,1015.89
2018-06-22T06:21:19.443Z,1015.89
2018-06-22T06:22:19.452Z,1015.97
2018-06-22T06:23:19.446Z,1015.95
2018-06-22T06:24:19.457Z,1015.96
2018-06-22T06:25:19.456Z,1015.98
2018-06-22T06:26:19.474Z,1015.96
2018-06-22T06:27:19.538Z,1015.86
2018-06-22T06:28:19.471Z,1015.87
2018-06-22T06:29:19.480Z,1015.88
2018-06-22T06:30:19.571Z,1015.92
2018-06-22T06:31:20.393Z,1015.95
2018-06-22T06:33:12.528Z,1015.85
2018-06-22T06:34:13.958Z,1015.97
2018-06-22T06:36:05.379Z,1015.92
2018-06-22T06:37:05.365Z,1015.89
2018-06-22T06:38:58.891Z,1015.87
2018-06-22T06:39:58.351Z,1015.98
2018-06-22T06:41:51.374Z,1015.99
2018-06-22T06:42:52.270Z,1016.01
2018-06-22T06:44:44.267Z,1016.07
2018-06-22T06:45:44.237Z,1016.09
2018-06-22T06:47:37.233Z,1016.09
2018-06-22T06:48:39.200Z,1016.15
2018-06-22T06:50:30.193Z,1016.13
2018-06-22T06:51:30.149Z,1016.18
2018-06-22T06:53:23.132Z,1016.20
2018-06-22T06:54:23.115Z,1016.19
2018-06-22T06:56:16.105Z,1016.20
2018-06-22T06:57:16.066Z,1016.19
2018-06-22T06:59:09.057Z,1016.21
2018-06-22T07:00:09.030Z,1016.22
2018-06-22T07:02:02.008Z,1016.23
2018-06-22T07:03:01.990Z,1016.39
2018-06-22T07:04:02.004Z,1016.56
2018-06-22T07:05:02.018Z,1016.39
2018-06-22T07:06:02.001Z,1016.45
2018-06-22T07:07:02.005Z,1016.43
2018-06-22T07:08:02.032Z,1016.69
2018-06-22T07:09:02.286Z,1016.33
2018-06-22T07:10:02.009Z,1017.33
2018-06-22T07:11:02.024Z,1016.44
2018-06-22T07:12:03.097Z,1016.49
2018-06-22T07:13:02.032Z,1016.51
2018-06-22T07:14:02.040Z,1017.29
2018-06-22T07:15:02.055Z,1017.34
2018-06-22T07:16:02.053Z,1017.30
2018-06-22T07:17:02.054Z,1017.29
2018-06-22T07:18:02.061Z,1017.37
2018-06-22T07:19:02.073Z,1017.19
2018-06-22T07:20:02.063Z,1017.36
2018-06-22T07:21:02.125Z,1016.84
2018-06-22T07:22:02.096Z,1016.65
2018-06-22T07:23:02.098Z,1016.59
2018-06-22T07:24:02.098Z,1016.52
2018-06-22T07:25:02.138Z,1016.41
2018-06-22T07:26:02.120Z,1016.51
2018-06-22T07:27:02.116Z,1016.51
2018-06-22T07:28:02.141Z,1016.46
2018-06-22T07:29:02.150Z,1016.42
2018-06-22T07:30:02.155Z,1016.49
2018-06-22T07:31:02.166Z,1016.53
2018-06-22T07:32:02.173Z,1016.50
2018-06-22T07:33:02.178Z,1016.72
2018-06-22T07:34:02.179Z,1016.65
2018-06-22T07:35:02.197Z,1017.00
2018-06-22T07:36:02.232Z,1017.55
2018-06-22T07:37:02.210Z,1017.62
2018-06-22T07:38:02.214Z,1017.52
2018-06-22T07:39:02.223Z,1017.57
2018-06-22T07:40:02.232Z,1017.05
2018-06-22T07:41:02.995Z,1016.65
2018-06-22T07:42:02.245Z,1017.74
2018-06-22T07:43:04.987Z,1017.12
2018-06-22T07:44:02.371Z,1017.81
2018-06-22T07:45:02.292Z,1016.84
2018-06-22T07:46:02.289Z,1017.74
2018-06-22T07:47:02.293Z,1017.32
2018-06-22T07:48:02.317Z,1016.83
2018-06-22T07:49:02.324Z,1016.70
2018-06-22T07:50:02.339Z,1016.69
2018-06-22T07:51:02.339Z,1016.65
2018-06-22T07:52:02.993Z,1016.63
2018-06-22T07:53:02.371Z,1016.50
2018-06-22T07:54:02.378Z,1016.53
2018-06-22T07:55:02.423Z,1016.45
2018-06-22T07:56:02.397Z,1016.47
2018-06-22T07:57:02.410Z,1016.96
2018-06-22T07:58:02.417Z,1016.61
2018-06-22T07:59:02.417Z,1016.64
2018-06-22T08:00:02.428Z,1016.87
2018-06-22T08:01:02.453Z,1017.05
2018-06-22T08:02:02.462Z,1016.76
2018-06-22T08:03:02.461Z,1017.03
2018-06-22T08:04:02.468Z,1016.89
2018-06-22T08:05:02.479Z,1017.15
2018-06-22T08:06:02.500Z,1016.88
2018-06-22T08:07:02.504Z,1017.54
2018-06-22T08:08:02.510Z,1017.75
2018-06-22T08:09:02.521Z,1017.94
2018-06-22T08:10:02.535Z,1017.92
2018-06-22T08:11:02.528Z,1017.89
2018-06-22T08:12:02.562Z,1017.89
2018-06-22T08:13:05.493Z,1017.93
2018-06-22T08:14:02.573Z,1016.86
2018-06-22T08:15:02.592Z,1017.94
2018-06-22T08:16:02.586Z,1016.66
2018-06-22T08:17:02.600Z,1017.92
2018-06-22T08:18:02.605Z,1017.91
2018-06-22T08:19:02.616Z,1017.25
2018-06-22T08:20:02.640Z,1016.83
2018-06-22T08:22:02.650Z,1016.80
2018-06-22T08:23:02.667Z,1016.79
2018-06-22T08:24:02.672Z,1016.91
2018-06-22T08:25:02.688Z,1016.90
2018-06-22T08:26:02.713Z,1016.93
2018-06-22T08:27:02.700Z,1016.88
2018-06-22T08:28:02.716Z,1016.77
2018-06-22T08:29:02.727Z,1016.80
2018-06-22T08:30:02.736Z,1016.75
2018-06-22T08:31:02.750Z,1016.74
2018-06-22T08:32:03.499Z,1016.74
2018-06-22T08:33:02.773Z,1016.74
2018-06-22T08:34:02.778Z,1016.75
2018-06-22T08:35:02.795Z,1016.78
2018-06-22T08:36:02.814Z,1016.86
2018-06-22T08:37:02.827Z,1016.86
2018-06-22T08:38:02.822Z,1016.88
2018-06-22T08:39:02.831Z,1016.81
2018-06-22T08:40:02.853Z,1016.88
2018-06-22T08:41:02.860Z,1016.93
2018-06-22T08:42:02.871Z,1016.87
2018-06-22T08:43:02.864Z,1016.84
2018-06-22T08:44:02.877Z,1016.87
2018-06-22T08:45:02.889Z,1016.90
2018-06-22T08:46:02.892Z,1016.89
2018-06-22T08:47:02.901Z,1016.95
2018-06-22T08:48:02.915Z,1016.89
2018-06-22T08:49:02.951Z,1016.95
2018-06-22T08:50:02.929Z,1018.25
2018-06-22T08:51:02.949Z,1017.51
2018-06-22T08:52:02.948Z,1018.33
2018-06-22T08:53:02.956Z,1017.22
2018-06-22T08:54:02.971Z,1018.32
2018-06-22T08:55:02.984Z,1017.18
2018-06-22T08:56:02.982Z,1017.62
2018-06-22T08:57:02.986Z,1017.18
2018-06-22T08:58:02.993Z,1017.96
2018-06-22T08:59:03.016Z,1018.22
2018-06-22T09:00:03.025Z,1018.29
2018-06-22T09:01:03.028Z,1017.59
2018-06-22T09:02:03.041Z,1017.15
2018-06-22T09:03:03.045Z,1018.50
2018-06-22T09:04:03.063Z,1017.47
2018-06-22T09:05:03.065Z,1017.27
2018-06-22T09:06:03.082Z,1017.28
2018-06-22T09:07:03.090Z,1017.31
2018-06-22T09:08:03.096Z,1017.28
2018-06-22T09:09:03.130Z,1017.19
2018-06-22T09:10:03.128Z,1017.21
2018-06-22T09:11:03.136Z,1017.20
2018-06-22T09:12:03.158Z,1017.28
2018-06-22T09:13:03.155Z,1017.34
2018-06-22T09:14:03.177Z,1017.46
2018-06-22T09:15:03.193Z,1017.52
2018-06-22T09:16:03.193Z,1017.70
2018-06-22T09:17:05.026Z,1017.44
2018-06-22T09:18:03.230Z,1017.53
2018-06-22T09:19:03.225Z,1017.21
2018-06-22T09:20:03.243Z,1017.26
2018-06-22T09:21:03.250Z,1017.21
2018-06-22T09:22:06.025Z,1017.20
2018-06-22T09:23:03.291Z,1017.29
2018-06-22T09:24:05.016Z,1017.27
2018-06-22T09:25:03.306Z,1017.28
2018-06-22T09:26:03.318Z,1017.25
2018-06-22T09:27:03.320Z,1017.32
2018-06-22T09:28:03.345Z,1017.27
2018-06-22T09:29:03.344Z,1017.28
2018-06-22T09:30:03.365Z,1017.29
2018-06-22T09:31:05.035Z,1017.30
2018-06-22T09:32:05.019Z,1017.29
2018-06-22T09:33:03.395Z,1017.35
2018-06-22T09:34:03.426Z,1017.38
2018-06-22T09:35:03.482Z,1017.41
2018-06-22T09:36:05.083Z,1017.47
2018-06-22T09:37:05.116Z,1017.53
2018-06-22T09:38:03.509Z,1017.58
2018-06-22T09:39:03.470Z,1017.50
2018-06-22T09:40:03.508Z,1017.56
2018-06-22T09:41:03.773Z,1017.62
2018-06-22T09:42:03.492Z,1017.57
2018-06-22T09:43:03.493Z,1017.54
2018-06-22T09:44:03.504Z,1017.62
2018-06-22T09:45:03.508Z,1017.66
2018-06-22T09:46:03.523Z,1017.79
2018-06-22T09:47:03.525Z,1017.75
2018-06-22T09:48:03.530Z,1017.90
2018-06-22T09:49:03.551Z,1017.82
2018-06-22T09:50:03.549Z,1017.73
2018-06-22T09:51:03.569Z,1017.71
2018-06-22T09:52:03.572Z,1017.64
2018-06-22T09:53:03.594Z,1017.49
2018-06-22T09:54:03.594Z,1017.46
2018-06-22T09:55:03.618Z,1017.62
2018-06-22T09:56:03.706Z,1017.59
2018-06-22T09:57:03.726Z,1017.68
2018-06-22T09:58:03.732Z,1017.64
2018-06-22T09:59:03.682Z,1017.61
2018-06-22T10:00:05.584Z,1017.68
2018-06-22T10:01:03.686Z,1017.65
2018-06-22T10:02:03.747Z,1017.73
2018-06-22T10:03:05.574Z,1017.65
2018-06-22T10:04:11.551Z,1017.62
2018-06-22T10:05:11.556Z,1017.66
2018-06-22T10:06:03.756Z,1017.72
2018-06-22T10:07:03.754Z,1017.67
2018-06-22T10:08:04.853Z,1017.67
2018-06-22T10:09:06.548Z,1017.72
2018-06-22T10:10:03.830Z,1017.66
2018-06-22T10:11:03.797Z,1017.65
2018-06-22T10:12:06.541Z,1017.65
2018-06-22T10:13:03.825Z,1017.67
2018-06-22T10:14:03.829Z,1017.64
2018-06-22T10:15:03.858Z,1017.65
2018-06-22T10:16:03.863Z,1017.74
2018-06-22T10:17:03.871Z,1017.75
2018-06-22T10:18:03.886Z,1017.66
2018-06-22T10:19:03.899Z,1017.64
2018-06-22T10:20:07.548Z,1017.65
2018-06-22T10:21:03.935Z,1017.73
2018-06-22T10:22:03.944Z,1017.65
2018-06-22T10:23:03.943Z,1017.76
2018-06-22T10:24:03.962Z,1017.65
2018-06-22T10:25:03.978Z,1017.72
2018-06-22T10:26:03.991Z,1017.68
2018-06-22T10:27:04.040Z,1017.67
2018-06-22T10:28:04.006Z,1017.62
2018-06-22T10:29:04.026Z,1017.62
2018-06-22T10:30:04.033Z,1017.67
2018-06-22T10:31:04.048Z,1017.66
2018-06-22T10:32:04.059Z,1017.68
2018-06-22T10:33:04.071Z,1017.66
2018-06-22T10:34:04.256Z,1017.62
2018-06-22T10:35:04.096Z,1017.68
2018-06-22T10:36:04.101Z,1017.70
2018-06-22T10:37:05.059Z,1017.71
2018-06-22T10:38:04.128Z,1017.68
2018-06-22T10:39:04.142Z,1017.69
2018-06-22T10:40:04.146Z,1017.64
2018-06-22T10:41:04.155Z,1017.68
2018-06-22T10:42:04.174Z,1017.70
2018-06-22T10:43:04.179Z,1017.69
2018-06-22T10:44:04.196Z,1017.69
2018-06-22T10:45:04.207Z,1017.66
2018-06-22T10:46:04.307Z,1017.75
2018-06-22T10:47:04.235Z,1017.71
2018-06-22T10:48:04.243Z,1017.67
2018-06-22T10:49:04.249Z,1017.58
2018-06-22T10:50:04.266Z,1017.59
2018-06-22T10:51:04.270Z,1017.59
2018-06-22T10:52:04.283Z,1017.61
2018-06-22T10:53:04.306Z,1017.57
2018-06-22T10:54:04.307Z,1017.59
2018-06-22T10:55:04.326Z,1017.54
2018-06-22T10:56:04.331Z,1017.51
2018-06-22T10:57:04.350Z,1017.57
2018-06-22T10:58:04.363Z,1017.54
2018-06-22T10:59:04.376Z,1017.56
2018-06-22T11:00:04.460Z,1017.52
2018-06-22T11:01:04.398Z,1017.57
2018-06-22T11:02:04.408Z,1017.67
2018-06-22T11:03:04.427Z,1017.71
2018-06-22T11:04:04.434Z,1017.65
2018-06-22T11:05:04.467Z,1017.61
2018-06-22T11:06:04.474Z,1017.69
2018-06-22T11:07:04.482Z,1017.70
2018-06-22T11:08:04.494Z,1017.71
2018-06-22T11:09:04.502Z,1017.79
2018-06-22T11:10:04.517Z,1017.80
2018-06-22T11:11:04.532Z,1017.81
2018-06-22T11:12:04.553Z,1017.68
2018-06-22T11:13:04.561Z,1017.73
2018-06-22T11:14:04.833Z,1017.71
2018-06-22T11:15:04.588Z,1017.73
2018-06-22T11:16:04.601Z,1017.84
2018-06-22T11:17:04.702Z,1017.81
2018-06-22T11:18:04.630Z,1017.76
2018-06-22T11:19:04.647Z,1017.82
2018-06-22T11:20:04.673Z,1017.75
2018-06-22T11:21:04.681Z,1017.78
2018-06-22T11:22:04.689Z,1017.78
2018-06-22T11:23:04.695Z,1017.80
2018-06-22T11:24:07.569Z,1017.68
2018-06-22T11:25:04.730Z,1017.76
2018-06-22T11:26:04.734Z,1017.69
2018-06-22T11:27:04.770Z,1017.81
2018-06-22T11:28:04.769Z,1017.81
2018-06-22T11:29:04.789Z,1017.83
2018-06-22T11:30:04.788Z,1017.79
2018-06-22T11:31:04.818Z,1017.81
2018-06-22T11:32:04.832Z,1017.88
2018-06-22T11:33:06.576Z,1017.75
2018-06-22T11:34:04.841Z,1017.74
2018-06-22T11:35:04.856Z,1017.76
2018-06-22T11:36:04.865Z,1017.75
2018-06-22T11:37:07.585Z,1017.81
2018-06-22T11:38:04.898Z,1017.84
2018-06-22T11:39:04.908Z,1017.92
2018-06-22T11:40:04.930Z,1018.03
2018-06-22T11:41:04.932Z,1018.06
2018-06-22T11:42:04.942Z,1018.14
2018-06-22T11:43:04.954Z,1018.15
2018-06-22T11:44:04.961Z,1018.18
2018-06-22T11:45:04.978Z,1018.11
2018-06-22T11:46:06.601Z,1018.18
2018-06-22T11:47:05.002Z,1018.11
2018-06-22T11:48:05.013Z,1018.18
2018-06-22T11:49:05.023Z,1018.18
2018-06-22T11:50:05.025Z,1018.17
2018-06-22T11:51:06.609Z,1018.26
2018-06-22T11:52:05.053Z,1018.26
2018-06-22T11:53:05.053Z,1018.25
2018-06-22T11:54:05.072Z,1018.30
2018-06-22T11:55:05.070Z,1018.29
2018-06-22T11:56:05.079Z,1018.28
2018-06-22T11:57:05.100Z,1018.33
2018-06-22T11:58:05.125Z,1018.25
2018-06-22T11:59:06.368Z,1018.22
2018-06-22T12:00:06.816Z,1018.13
2018-06-22T12:01:06.863Z,1018.19
2018-06-22T12:02:06.833Z,1018.17
2018-06-22T12:03:06.685Z,1018.12
2018-06-22T12:04:06.948Z,1018.07
2018-06-22T12:05:05.495Z,1018.09
2018-06-22T12:06:05.436Z,1018.09
2018-06-22T12:07:06.530Z,1018.07
2018-06-22T12:08:06.776Z,1018.02
2018-06-22T12:09:06.609Z,1018.05
2018-06-22T12:10:05.944Z,1018.02
2018-06-22T12:11:05.612Z,1017.95
2018-06-22T12:12:06.854Z,1017.98
2018-06-22T12:13:06.882Z,1017.99
2018-06-22T12:14:05.919Z,1017.97
2018-06-22T12:15:08.319Z,1017.96
2018-06-22T12:16:06.896Z,1017.96
2018-06-22T12:17:05.891Z,1018.05
2018-06-22T12:18:07.397Z,1018.07
2018-06-22T12:19:06.939Z,1018.11
2018-06-22T12:20:06.822Z,1018.12
2018-06-22T12:21:06.844Z,1018.11
2018-06-22T12:22:06.831Z,1018.15
2018-06-22T12:23:06.663Z,1018.08
2018-06-22T12:24:05.711Z,1018.16
2018-06-22T12:25:06.601Z,1018.10
2018-06-22T12:26:05.532Z,1018.16
2018-06-22T12:27:06.667Z,1018.20
2018-06-22T12:28:06.816Z,1018.25
2018-06-22T12:29:05.838Z,1018.20
2018-06-22T12:30:05.885Z,1018.23
2018-06-22T12:31:06.773Z,1018.20
2018-06-22T12:32:06.866Z,1018.22
2018-06-22T12:33:06.792Z,1018.12
2018-06-22T12:34:06.884Z,1018.12
2018-06-22T12:35:07.521Z,1018.08
2018-06-22T12:36:06.845Z,1018.13
2018-06-22T12:37:05.966Z,1018.13
2018-06-22T12:38:06.820Z,1018.12
2018-06-22T12:39:05.923Z,1018.12
2018-06-22T12:40:06.805Z,1018.09
2018-06-22T12:41:06.941Z,1018.05
2018-06-22T12:42:06.779Z,1018.07
2018-06-22T12:43:06.128Z,1018.06
2018-06-22T12:44:07.404Z,1018.06
2018-06-22T12:45:05.560Z,1018.00
2018-06-22T12:46:05.501Z,1018.05
2018-06-22T12:47:05.514Z,1018.00
2018-06-22T12:48:05.525Z,1017.99
2018-06-22T12:49:05.529Z,1017.96
2018-06-22T12:50:05.534Z,1017.99
2018-06-22T12:51:05.546Z,1018.03
2018-06-22T12:52:05.556Z,1018.09
2018-06-22T12:53:05.562Z,1018.10
2018-06-22T12:54:05.572Z,1018.17
2018-06-22T12:55:05.579Z,1018.15
2018-06-22T12:56:05.590Z,1018.22
2018-06-22T12:57:05.589Z,1018.14
2018-06-22T12:58:05.604Z,1018.21
2018-06-22T12:59:05.601Z,1018.20
2018-06-22T13:00:05.611Z,1018.18
2018-06-22T13:01:05.627Z,1018.16
2018-06-22T13:02:06.613Z,1018.15
2018-06-22T13:03:05.641Z,1018.20
2018-06-22T13:04:05.680Z,1018.16
2018-06-22T13:05:05.655Z,1018.17
2018-06-22T13:06:05.658Z,1018.21
2018-06-22T13:07:05.663Z,1018.26
2018-06-22T13:08:05.680Z,1018.25
2018-06-22T13:09:05.696Z,1018.27
2018-06-22T13:10:05.775Z,1018.26
2018-06-22T13:11:05.691Z,1018.31
2018-06-22T13:12:05.703Z,1018.25
2018-06-22T13:13:05.712Z,1018.25
2018-06-22T13:14:05.722Z,1018.35
2018-06-22T13:15:05.720Z,1018.21
2018-06-22T13:16:05.734Z,1018.26
2018-06-22T13:17:05.801Z,1018.28
2018-06-22T13:18:05.749Z,1018.28
2018-06-22T13:19:05.752Z,1018.29
2018-06-22T13:20:05.764Z,1018.30
2018-06-22T13:21:05.770Z,1018.31
2018-06-22T13:22:05.782Z,1018.19
2018-06-22T13:23:05.847Z,1018.31
2018-06-22T13:24:05.789Z,1018.33
2018-06-22T13:25:05.800Z,1018.37
2018-06-22T13:26:05.809Z,1018.36
2018-06-22T13:27:05.831Z,1018.36
2018-06-22T13:28:05.817Z,1018.38
2018-06-22T13:29:05.833Z,1018.34
2018-06-22T13:30:05.831Z,1018.38
2018-06-22T13:31:05.845Z,1018.43
2018-06-22T13:32:05.907Z,1018.41
2018-06-22T13:33:05.910Z,1018.42
2018-06-22T13:34:05.862Z,1018.44
2018-06-22T13:35:05.873Z,1018.41
2018-06-22T13:36:05.880Z,1018.46
2018-06-22T13:37:05.910Z,1018.46